sensor_id;sensor_type;location;lat;lon;timestamp;temperature;humidity
19088;DHT22;9676;50.916;13.352;2023-04-24T00:01:44;16.00;56.80
19088;DHT22;9676;50.916;13.352;2023-04-24T00:04:33;16.00;56.80
19088;DHT22;9676;50.916;13.352;2023-04-24T00:07:23;16.10;56.90
19088;DHT22;9676;50.916;13.352;2023-04-24T00:10:12;16.10;56.80
19088;DHT22;9676;50.916;13.352;2023-04-24T00:13:03;16.20;56.90
19088;DHT22;9676;50.916;13.352;2023-04-24T00:15:53;16.20;56.90
19088;DHT22;9676;50.916;13.352;2023-04-24T00:18:42;16.20;56.80
19088;DHT22;9676;50.916;13.352;2023-04-24T00:21:32;16.30;56.90
19088;DHT22;9676;50.916;13.352;2023-04-24T00:24:22;16.30;56.90
19088;DHT22;9676;50.916;13.352;2023-04-24T00:27:11;16.30;56.80
19088;DHT22;9676;50.916;13.352;2023-04-24T00:30:02;16.30;56.80
19088;DHT22;9676;50.916;13.352;2023-04-24T00:32:53;16.30;57.00
19088;DHT22;9676;50.916;13.352;2023-04-24T00:35:43;16.30;56.80
19088;DHT22;9676;50.916;13.352;2023-04-24T00:38:33;16.40;56.90
19088;DHT22;9676;50.916;13.352;2023-04-24T00:41:24;16.40;56.80
19088;DHT22;9676;50.916;13.352;2023-04-24T00:44:14;16.40;56.80
19088;DHT22;9676;50.916;13.352;2023-04-24T00:47:05;16.30;56.70
19088;DHT22;9676;50.916;13.352;2023-04-24T00:49:55;16.30;56.80
19088;DHT22;9676;50.916;13.352;2023-04-24T00:52:44;16.30;56.70
19088;DHT22;9676;50.916;13.352;2023-04-24T00:55:33;16.30;56.70
19088;DHT22;9676;50.916;13.352;2023-04-24T00:58:25;16.30;56.70
19088;DHT22;9676;50.916;13.352;2023-04-24T01:01:14;16.30;56.70
19088;DHT22;9676;50.916;13.352;2023-04-24T01:04:05;16.30;56.70
19088;DHT22;9676;50.916;13.352;2023-04-24T01:06:55;16.20;56.70
19088;DHT22;9676;50.916;13.352;2023-04-24T01:09:46;16.20;56.60
19088;DHT22;9676;50.916;13.352;2023-04-24T01:12:39;16.20;56.70
19088;DHT22;9676;50.916;13.352;2023-04-24T01:15:28;16.20;56.60
19088;DHT22;9676;50.916;13.352;2023-04-24T01:18:17;16.20;56.70
19088;DHT22;9676;50.916;13.352;2023-04-24T01:21:13;16.20;56.80
19088;DHT22;9676;50.916;13.352;2023-04-24T01:24:06;16.20;56.80
19088;DHT22;9676;50.916;13.352;2023-04-24T01:26:55;16.20;56.90
19088;DHT22;9676;50.916;13.352;2023-04-24T01:29:45;16.20;56.90
19088;DHT22;9676;50.916;13.352;2023-04-24T01:32:36;16.20;56.90
19088;DHT22;9676;50.916;13.352;2023-04-24T01:35:26;16.20;56.90
19088;DHT22;9676;50.916;13.352;2023-04-24T01:38:15;16.20;56.90
19088;DHT22;9676;50.916;13.352;2023-04-24T01:41:06;16.20;56.90
19088;DHT22;9676;50.916;13.352;2023-04-24T01:43:57;16.20;57.00
19088;DHT22;9676;50.916;13.352;2023-04-24T01:46:46;16.20;56.90
19088;DHT22;9676;50.916;13.352;2023-04-24T01:49:37;16.20;56.80
19088;DHT22;9676;50.916;13.352;2023-04-24T01:52:28;16.20;56.90
19088;DHT22;9676;50.916;13.352;2023-04-24T01:55:18;16.20;56.80
19088;DHT22;9676;50.916;13.352;2023-04-24T01:58:09;16.20;56.80
19088;DHT22;9676;50.916;13.352;2023-04-24T02:00:59;16.20;56.80
19088;DHT22;9676;50.916;13.352;2023-04-24T02:03:49;16.10;56.70
19088;DHT22;9676;50.916;13.352;2023-04-24T02:06:38;16.10;56.70
19088;DHT22;9676;50.916;13.352;2023-04-24T02:09:28;16.10;56.70
19088;DHT22;9676;50.916;13.352;2023-04-24T02:12:17;16.00;56.70
19088;DHT22;9676;50.916;13.352;2023-04-24T02:15:09;16.00;56.70
19088;DHT22;9676;50.916;13.352;2023-04-24T02:17:59;16.00;56.90
19088;DHT22;9676;50.916;13.352;2023-04-24T02:20:49;15.90;56.80
19088;DHT22;9676;50.916;13.352;2023-04-24T02:23:38;15.90;56.80
19088;DHT22;9676;50.916;13.352;2023-04-24T02:26:28;15.90;56.90
19088;DHT22;9676;50.916;13.352;2023-04-24T02:29:19;15.90;56.90
19088;DHT22;9676;50.916;13.352;2023-04-24T02:32:11;15.90;57.00
19088;DHT22;9676;50.916;13.352;2023-04-24T02:35:04;15.80;56.90
19088;DHT22;9676;50.916;13.352;2023-04-24T02:37:54;15.80;56.90
19088;DHT22;9676;50.916;13.352;2023-04-24T02:40:43;15.80;56.90
19088;DHT22;9676;50.916;13.352;2023-04-24T02:43:33;15.80;56.90
19088;DHT22;9676;50.916;13.352;2023-04-24T02:46:22;15.80;57.10
19088;DHT22;9676;50.916;13.352;2023-04-24T02:49:13;15.80;57.00
19088;DHT22;9676;50.916;13.352;2023-04-24T02:52:03;15.80;57.00
19088;DHT22;9676;50.916;13.352;2023-04-24T02:54:52;15.80;57.10
19088;DHT22;9676;50.916;13.352;2023-04-24T02:57:42;15.80;57.00
19088;DHT22;9676;50.916;13.352;2023-04-24T03:00:32;15.80;57.00
19088;DHT22;9676;50.916;13.352;2023-04-24T03:03:21;15.80;57.10
19088;DHT22;9676;50.916;13.352;2023-04-24T03:06:13;15.80;57.10
19088;DHT22;9676;50.916;13.352;2023-04-24T03:09:03;15.80;57.00
19088;DHT22;9676;50.916;13.352;2023-04-24T03:11:52;15.80;57.10
19088;DHT22;9676;50.916;13.352;2023-04-24T03:14:45;15.80;57.10
19088;DHT22;9676;50.916;13.352;2023-04-24T03:17:34;15.70;57.00
19088;DHT22;9676;50.916;13.352;2023-04-24T03:20:25;15.70;57.00
19088;DHT22;9676;50.916;13.352;2023-04-24T03:23:17;15.80;57.10
19088;DHT22;9676;50.916;13.352;2023-04-24T03:26:07;15.70;57.00
19088;DHT22;9676;50.916;13.352;2023-04-24T03:29:03;15.70;57.00
19088;DHT22;9676;50.916;13.352;2023-04-24T03:31:52;15.70;57.00
19088;DHT22;9676;50.916;13.352;2023-04-24T03:34:42;15.70;57.60
19088;DHT22;9676;50.916;13.352;2023-04-24T03:37:34;15.70;57.00
19088;DHT22;9676;50.916;13.352;2023-04-24T03:40:45;15.60;56.90
19088;DHT22;9676;50.916;13.352;2023-04-24T03:43:48;15.60;56.90
19088;DHT22;9676;50.916;13.352;2023-04-24T03:46:38;15.60;56.80
19088;DHT22;9676;50.916;13.352;2023-04-24T03:49:27;15.60;56.80
19088;DHT22;9676;50.916;13.352;2023-04-24T03:52:17;15.60;56.90
19088;DHT22;9676;50.916;13.352;2023-04-24T03:55:07;15.50;56.70
19088;DHT22;9676;50.916;13.352;2023-04-24T03:58:06;15.50;56.80
19088;DHT22;9676;50.916;13.352;2023-04-24T04:00:56;15.50;56.80
19088;DHT22;9676;50.916;13.352;2023-04-24T04:04:15;15.40;56.70
19088;DHT22;9676;50.916;13.352;2023-04-24T04:07:05;15.40;56.60
19088;DHT22;9676;50.916;13.352;2023-04-24T04:09:55;15.40;56.60
19088;DHT22;9676;50.916;13.352;2023-04-24T04:12:45;15.30;56.60
19088;DHT22;9676;50.916;13.352;2023-04-24T04:15:36;15.30;56.60
19088;DHT22;9676;50.916;13.352;2023-04-24T04:18:25;15.30;56.80
19088;DHT22;9676;50.916;13.352;2023-04-24T04:21:15;15.30;56.90
19088;DHT22;9676;50.916;13.352;2023-04-24T04:24:05;15.30;56.80
19088;DHT22;9676;50.916;13.352;2023-04-24T04:26:59;15.30;56.90
19088;DHT22;9676;50.916;13.352;2023-04-24T04:29:52;15.30;57.00
19088;DHT22;9676;50.916;13.352;2023-04-24T04:32:46;15.30;57.10
19088;DHT22;9676;50.916;13.352;2023-04-24T04:35:35;15.20;57.10
19088;DHT22;9676;50.916;13.352;2023-04-24T04:38:26;15.30;57.20
19088;DHT22;9676;50.916;13.352;2023-04-24T04:41:24;15.40;57.40
19088;DHT22;9676;50.916;13.352;2023-04-24T04:44:14;15.40;57.40
19088;DHT22;9676;50.916;13.352;2023-04-24T04:47:04;15.40;57.40
19088;DHT22;9676;50.916;13.352;2023-04-24T04:49:57;15.50;57.60
19088;DHT22;9676;50.916;13.352;2023-04-24T04:52:48;15.60;57.70
19088;DHT22;9676;50.916;13.352;2023-04-24T04:55:44;15.60;57.70
19088;DHT22;9676;50.916;13.352;2023-04-24T04:58:36;15.70;57.80
19088;DHT22;9676;50.916;13.352;2023-04-24T05:01:28;15.80;58.00
19088;DHT22;9676;50.916;13.352;2023-04-24T05:04:18;15.90;58.20
19088;DHT22;9676;50.916;13.352;2023-04-24T05:07:09;16.10;58.40
19088;DHT22;9676;50.916;13.352;2023-04-24T05:10:01;16.20;58.40
19088;DHT22;9676;50.916;13.352;2023-04-24T05:12:50;16.30;58.10
19088;DHT22;9676;50.916;13.352;2023-04-24T05:15:40;16.40;57.90
19088;DHT22;9676;50.916;13.352;2023-04-24T05:18:30;16.50;57.70
19088;DHT22;9676;50.916;13.352;2023-04-24T05:21:19;16.60;57.50
19088;DHT22;9676;50.916;13.352;2023-04-24T05:24:13;16.60;57.30
19088;DHT22;9676;50.916;13.352;2023-04-24T05:27:22;16.60;57.20
19088;DHT22;9676;50.916;13.352;2023-04-24T05:30:12;16.60;57.10
19088;DHT22;9676;50.916;13.352;2023-04-24T05:33:02;16.70;57.30
19088;DHT22;9676;50.916;13.352;2023-04-24T05:35:54;16.70;57.30
19088;DHT22;9676;50.916;13.352;2023-04-24T05:38:43;16.70;57.30
19088;DHT22;9676;50.916;13.352;2023-04-24T05:41:34;16.80;57.30
19088;DHT22;9676;50.916;13.352;2023-04-24T05:44:24;16.80;57.30
19088;DHT22;9676;50.916;13.352;2023-04-24T05:47:13;16.80;57.30
19088;DHT22;9676;50.916;13.352;2023-04-24T05:50:04;16.90;57.30
19088;DHT22;9676;50.916;13.352;2023-04-24T05:52:54;16.80;57.20
19088;DHT22;9676;50.916;13.352;2023-04-24T05:55:50;16.90;57.20
19088;DHT22;9676;50.916;13.352;2023-04-24T05:58:41;16.90;57.20
19088;DHT22;9676;50.916;13.352;2023-04-24T06:01:30;17.00;57.20
19088;DHT22;9676;50.916;13.352;2023-04-24T06:04:29;17.00;57.30
19088;DHT22;9676;50.916;13.352;2023-04-24T06:07:19;17.00;57.30
19088;DHT22;9676;50.916;13.352;2023-04-24T06:10:09;17.10;57.50
19088;DHT22;9676;50.916;13.352;2023-04-24T06:13:04;17.10;57.70
19088;DHT22;9676;50.916;13.352;2023-04-24T06:15:58;17.20;57.80
19088;DHT22;9676;50.916;13.352;2023-04-24T06:18:55;17.30;58.00
19088;DHT22;9676;50.916;13.352;2023-04-24T06:21:45;17.50;58.10
19088;DHT22;9676;50.916;13.352;2023-04-24T06:24:34;17.60;57.90
19088;DHT22;9676;50.916;13.352;2023-04-24T06:27:23;17.70;57.70
19088;DHT22;9676;50.916;13.352;2023-04-24T06:30:13;17.70;57.40
19088;DHT22;9676;50.916;13.352;2023-04-24T06:33:04;17.80;57.40
19088;DHT22;9676;50.916;13.352;2023-04-24T06:36:07;17.80;57.30
19088;DHT22;9676;50.916;13.352;2023-04-24T06:38:57;17.90;57.30
19088;DHT22;9676;50.916;13.352;2023-04-24T06:41:46;17.90;57.30
19088;DHT22;9676;50.916;13.352;2023-04-24T06:44:40;18.00;57.40
19088;DHT22;9676;50.916;13.352;2023-04-24T06:47:29;18.00;57.60
19088;DHT22;9676;50.916;13.352;2023-04-24T06:50:20;18.10;57.80
19088;DHT22;9676;50.916;13.352;2023-04-24T06:53:09;18.30;58.10
19088;DHT22;9676;50.916;13.352;2023-04-24T06:56:00;18.40;58.20
19088;DHT22;9676;50.916;13.352;2023-04-24T06:58:50;18.60;58.40
19088;DHT22;9676;50.916;13.352;2023-04-24T07:01:39;18.80;58.60
19088;DHT22;9676;50.916;13.352;2023-04-24T07:04:29;19.00;58.70
19088;DHT22;9676;50.916;13.352;2023-04-24T07:07:20;19.20;58.80
19088;DHT22;9676;50.916;13.352;2023-04-24T07:10:12;19.50;58.90
19088;DHT22;9676;50.916;13.352;2023-04-24T07:13:02;19.70;58.90
19088;DHT22;9676;50.916;13.352;2023-04-24T07:15:51;20.00;58.70
19088;DHT22;9676;50.916;13.352;2023-04-24T07:18:42;20.20;58.50
19088;DHT22;9676;50.916;13.352;2023-04-24T07:21:32;20.40;58.60
19088;DHT22;9676;50.916;13.352;2023-04-24T07:24:22;20.60;59.50
19088;DHT22;9676;50.916;13.352;2023-04-24T07:27:13;20.90;58.90
19088;DHT22;9676;50.916;13.352;2023-04-24T07:30:03;21.10;58.40
19088;DHT22;9676;50.916;13.352;2023-04-24T07:32:54;21.30;57.90
19088;DHT22;9676;50.916;13.352;2023-04-24T07:35:44;21.50;57.60
19088;DHT22;9676;50.916;13.352;2023-04-24T07:38:33;21.50;57.10
19088;DHT22;9676;50.916;13.352;2023-04-24T07:41:24;21.60;56.90
19088;DHT22;9676;50.916;13.352;2023-04-24T07:44:15;21.60;56.60
19088;DHT22;9676;50.916;13.352;2023-04-24T07:47:04;21.70;56.40
19088;DHT22;9676;50.916;13.352;2023-04-24T07:49:54;21.60;55.70
19088;DHT22;9676;50.916;13.352;2023-04-24T07:52:44;21.60;55.60
19088;DHT22;9676;50.916;13.352;2023-04-24T07:55:33;21.50;55.60
19088;DHT22;9676;50.916;13.352;2023-04-24T07:58:24;21.40;56.10
19088;DHT22;9676;50.916;13.352;2023-04-24T08:01:13;21.40;55.50
19088;DHT22;9676;50.916;13.352;2023-04-24T08:04:03;21.30;55.40
19088;DHT22;9676;50.916;13.352;2023-04-24T08:06:53;21.30;55.30
19088;DHT22;9676;50.916;13.352;2023-04-24T08:09:42;21.20;55.10
19088;DHT22;9676;50.916;13.352;2023-04-24T08:12:32;21.10;54.80
19088;DHT22;9676;50.916;13.352;2023-04-24T08:15:23;21.10;54.80
19088;DHT22;9676;50.916;13.352;2023-04-24T08:18:12;20.90;54.70
19088;DHT22;9676;50.916;13.352;2023-04-24T08:21:04;20.90;54.70
19088;DHT22;9676;50.916;13.352;2023-04-24T08:23:53;20.80;54.40
19088;DHT22;9676;50.916;13.352;2023-04-24T08:26:42;20.70;54.20
19088;DHT22;9676;50.916;13.352;2023-04-24T08:29:32;20.70;54.40
19088;DHT22;9676;50.916;13.352;2023-04-24T08:32:22;20.60;54.50
19088;DHT22;9676;50.916;13.352;2023-04-24T08:35:12;20.60;54.90
19088;DHT22;9676;50.916;13.352;2023-04-24T08:38:01;20.70;55.30
19088;DHT22;9676;50.916;13.352;2023-04-24T08:40:50;20.80;55.60
19088;DHT22;9676;50.916;13.352;2023-04-24T08:43:40;20.90;55.70
19088;DHT22;9676;50.916;13.352;2023-04-24T08:46:31;21.10;55.70
19088;DHT22;9676;50.916;13.352;2023-04-24T08:49:24;21.20;55.40
19088;DHT22;9676;50.916;13.352;2023-04-24T08:52:15;21.40;55.20
19088;DHT22;9676;50.916;13.352;2023-04-24T08:55:05;21.50;55.00
19088;DHT22;9676;50.916;13.352;2023-04-24T08:57:55;21.50;54.60
19088;DHT22;9676;50.916;13.352;2023-04-24T09:00:45;21.50;54.20
19088;DHT22;9676;50.916;13.352;2023-04-24T09:03:36;21.50;53.80
19088;DHT22;9676;50.916;13.352;2023-04-24T09:06:28;21.50;53.60
19088;DHT22;9676;50.916;13.352;2023-04-24T09:09:18;21.40;53.60
19088;DHT22;9676;50.916;13.352;2023-04-24T09:12:07;21.40;53.80
19088;DHT22;9676;50.916;13.352;2023-04-24T09:14:58;21.40;53.90
19088;DHT22;9676;50.916;13.352;2023-04-24T09:17:47;21.50;54.50
19088;DHT22;9676;50.916;13.352;2023-04-24T09:20:58;21.50;53.80
19088;DHT22;9676;50.916;13.352;2023-04-24T09:23:59;21.60;53.50
19088;DHT22;9676;50.916;13.352;2023-04-24T09:26:56;21.60;53.60
19088;DHT22;9676;50.916;13.352;2023-04-24T09:29:55;21.70;54.20
19088;DHT22;9676;50.916;13.352;2023-04-24T09:32:45;21.70;53.40
19088;DHT22;9676;50.916;13.352;2023-04-24T09:35:34;21.70;53.50
19088;DHT22;9676;50.916;13.352;2023-04-24T09:38:31;21.80;53.40
19088;DHT22;9676;50.916;13.352;2023-04-24T09:41:22;21.80;53.10
19088;DHT22;9676;50.916;13.352;2023-04-24T09:44:13;21.80;53.30
19088;DHT22;9676;50.916;13.352;2023-04-24T09:47:09;21.90;53.50
19088;DHT22;9676;50.916;13.352;2023-04-24T09:49:58;22.00;53.20
19088;DHT22;9676;50.916;13.352;2023-04-24T09:52:57;22.10;53.70
19088;DHT22;9676;50.916;13.352;2023-04-24T09:55:47;22.20;53.40
19088;DHT22;9676;50.916;13.352;2023-04-24T09:58:39;22.30;53.70
19088;DHT22;9676;50.916;13.352;2023-04-24T10:01:32;22.40;53.10
19088;DHT22;9676;50.916;13.352;2023-04-24T10:04:24;22.50;52.80
19088;DHT22;9676;50.916;13.352;2023-04-24T10:07:15;22.50;52.90
19088;DHT22;9676;50.916;13.352;2023-04-24T10:10:05;22.50;52.70
19088;DHT22;9676;50.916;13.352;2023-04-24T10:12:55;22.40;52.50
19088;DHT22;9676;50.916;13.352;2023-04-24T10:15:48;22.40;52.40
19088;DHT22;9676;50.916;13.352;2023-04-24T10:18:39;22.40;52.10
19088;DHT22;9676;50.916;13.352;2023-04-24T10:21:28;22.40;52.20
19088;DHT22;9676;50.916;13.352;2023-04-24T10:24:18;22.30;51.90
19088;DHT22;9676;50.916;13.352;2023-04-24T10:27:10;22.20;51.60
19088;DHT22;9676;50.916;13.352;2023-04-24T10:30:01;22.10;51.20
19088;DHT22;9676;50.916;13.352;2023-04-24T10:32:53;22.00;51.00
19088;DHT22;9676;50.916;13.352;2023-04-24T10:35:45;21.80;50.80
19088;DHT22;9676;50.916;13.352;2023-04-24T10:38:38;21.60;50.70
19088;DHT22;9676;50.916;13.352;2023-04-24T10:41:30;21.50;50.80
19088;DHT22;9676;50.916;13.352;2023-04-24T10:44:22;21.30;50.90
19088;DHT22;9676;50.916;13.352;2023-04-24T10:47:13;21.10;51.10
19088;DHT22;9676;50.916;13.352;2023-04-24T10:50:08;21.00;51.30
19088;DHT22;9676;50.916;13.352;2023-04-24T10:53:06;21.00;51.70
19088;DHT22;9676;50.916;13.352;2023-04-24T10:55:58;21.00;52.60
19088;DHT22;9676;50.916;13.352;2023-04-24T10:58:50;21.20;54.00
19088;DHT22;9676;50.916;13.352;2023-04-24T11:01:52;21.60;55.50
19088;DHT22;9676;50.916;13.352;2023-04-24T11:04:43;22.10;55.50
19088;DHT22;9676;50.916;13.352;2023-04-24T11:11:08;23.10;54.30
19088;DHT22;9676;50.916;13.352;2023-04-24T11:14:03;23.50;53.50
19088;DHT22;9676;50.916;13.352;2023-04-24T11:16:54;23.70;53.10
19088;DHT22;9676;50.916;13.352;2023-04-24T11:19:50;23.80;53.50
19088;DHT22;9676;50.916;13.352;2023-04-24T11:22:43;24.00;52.90
19088;DHT22;9676;50.916;13.352;2023-04-24T11:25:34;24.20;53.40
19088;DHT22;9676;50.916;13.352;2023-04-24T11:28:24;24.40;52.80
19088;DHT22;9676;50.916;13.352;2023-04-24T11:31:36;24.60;52.50
19088;DHT22;9676;50.916;13.352;2023-04-24T11:34:26;24.70;51.20
19088;DHT22;9676;50.916;13.352;2023-04-24T11:37:16;24.70;51.40
19088;DHT22;9676;50.916;13.352;2023-04-24T11:40:07;24.60;50.40
19088;DHT22;9676;50.916;13.352;2023-04-24T11:43:00;24.50;49.80
19088;DHT22;9676;50.916;13.352;2023-04-24T11:45:49;24.40;49.20
19088;DHT22;9676;50.916;13.352;2023-04-24T11:48:45;24.20;49.20
19088;DHT22;9676;50.916;13.352;2023-04-24T11:51:34;24.10;49.00
19088;DHT22;9676;50.916;13.352;2023-04-24T11:54:47;23.90;49.10
19088;DHT22;9676;50.916;13.352;2023-04-24T11:57:37;23.80;48.60
19088;DHT22;9676;50.916;13.352;2023-04-24T12:00:30;23.70;48.90
19088;DHT22;9676;50.916;13.352;2023-04-24T12:03:21;23.70;48.80
19088;DHT22;9676;50.916;13.352;2023-04-24T12:06:11;23.50;47.50
19088;DHT22;9676;50.916;13.352;2023-04-24T12:09:01;23.60;48.50
19088;DHT22;9676;50.916;13.352;2023-04-24T12:12:02;23.70;48.70
19088;DHT22;9676;50.916;13.352;2023-04-24T12:14:54;23.70;48.50
19088;DHT22;9676;50.916;13.352;2023-04-24T12:17:46;23.70;48.10
19088;DHT22;9676;50.916;13.352;2023-04-24T12:20:36;23.70;47.60
19088;DHT22;9676;50.916;13.352;2023-04-24T12:23:35;23.60;48.10
19088;DHT22;9676;50.916;13.352;2023-04-24T12:26:24;23.50;46.70
19088;DHT22;9676;50.916;13.352;2023-04-24T12:29:19;23.40;46.80
19088;DHT22;9676;50.916;13.352;2023-04-24T12:32:15;23.20;45.50
19088;DHT22;9676;50.916;13.352;2023-04-24T12:35:07;23.10;45.80
19088;DHT22;9676;50.916;13.352;2023-04-24T12:38:05;22.90;46.10
19088;DHT22;9676;50.916;13.352;2023-04-24T12:41:02;22.70;45.40
19088;DHT22;9676;50.916;13.352;2023-04-24T12:43:53;22.50;45.60
19088;DHT22;9676;50.916;13.352;2023-04-24T12:46:43;22.30;45.90
19088;DHT22;9676;50.916;13.352;2023-04-24T12:49:33;22.10;46.00
19088;DHT22;9676;50.916;13.352;2023-04-24T12:52:24;22.00;46.10
19088;DHT22;9676;50.916;13.352;2023-04-24T12:55:14;22.00;45.70
19088;DHT22;9676;50.916;13.352;2023-04-24T12:58:03;21.90;45.80
19088;DHT22;9676;50.916;13.352;2023-04-24T13:00:53;21.80;45.60
19088;DHT22;9676;50.916;13.352;2023-04-24T13:03:42;21.70;45.60
19088;DHT22;9676;50.916;13.352;2023-04-24T13:06:33;21.70;46.00
19088;DHT22;9676;50.916;13.352;2023-04-24T13:09:24;21.70;46.10
19088;DHT22;9676;50.916;13.352;2023-04-24T13:12:13;21.70;45.80
19088;DHT22;9676;50.916;13.352;2023-04-24T13:15:04;21.70;45.80
19088;DHT22;9676;50.916;13.352;2023-04-24T13:17:54;21.80;46.10
19088;DHT22;9676;50.916;13.352;2023-04-24T13:20:43;21.80;46.20
19088;DHT22;9676;50.916;13.352;2023-04-24T13:23:35;21.80;46.20
19088;DHT22;9676;50.916;13.352;2023-04-24T13:26:25;21.90;46.10
19088;DHT22;9676;50.916;13.352;2023-04-24T13:29:15;21.90;45.10
19088;DHT22;9676;50.916;13.352;2023-04-24T13:32:04;21.90;45.40
19088;DHT22;9676;50.916;13.352;2023-04-24T13:34:53;21.80;45.50
19088;DHT22;9676;50.916;13.352;2023-04-24T13:37:43;21.80;45.60
19088;DHT22;9676;50.916;13.352;2023-04-24T13:40:32;21.90;45.90
19088;DHT22;9676;50.916;13.352;2023-04-24T13:43:24;21.90;45.90
19088;DHT22;9676;50.916;13.352;2023-04-24T13:46:13;22.00;46.40
19088;DHT22;9676;50.916;13.352;2023-04-24T13:49:03;22.10;45.60
19088;DHT22;9676;50.916;13.352;2023-04-24T13:51:52;22.10;45.30
19088;DHT22;9676;50.916;13.352;2023-04-24T13:54:42;22.10;45.20
19088;DHT22;9676;50.916;13.352;2023-04-24T13:57:31;22.10;45.10
19088;DHT22;9676;50.916;13.352;2023-04-24T14:00:22;22.10;45.00
19088;DHT22;9676;50.916;13.352;2023-04-24T14:03:12;22.10;45.00
19088;DHT22;9676;50.916;13.352;2023-04-24T14:06:01;22.20;45.10
19088;DHT22;9676;50.916;13.352;2023-04-24T14:08:51;22.10;44.80
19088;DHT22;9676;50.916;13.352;2023-04-24T14:11:41;22.10;44.70
19088;DHT22;9676;50.916;13.352;2023-04-24T14:14:30;22.00;44.50
19088;DHT22;9676;50.916;13.352;2023-04-24T14:17:21;21.90;44.20
19088;DHT22;9676;50.916;13.352;2023-04-24T14:20:12;21.80;44.00
19088;DHT22;9676;50.916;13.352;2023-04-24T14:23:01;21.70;44.10
19088;DHT22;9676;50.916;13.352;2023-04-24T14:25:51;21.60;43.90
19088;DHT22;9676;50.916;13.352;2023-04-24T14:28:41;21.50;44.10
19088;DHT22;9676;50.916;13.352;2023-04-24T14:31:30;21.50;44.20
19088;DHT22;9676;50.916;13.352;2023-04-24T14:34:21;21.40;44.20
19088;DHT22;9676;50.916;13.352;2023-04-24T14:37:10;21.30;44.20
19088;DHT22;9676;50.916;13.352;2023-04-24T14:40:00;21.20;44.30
19088;DHT22;9676;50.916;13.352;2023-04-24T14:43:07;21.20;44.50
19088;DHT22;9676;50.916;13.352;2023-04-24T14:45:57;21.20;44.50
19088;DHT22;9676;50.916;13.352;2023-04-24T14:48:46;21.20;44.20
19088;DHT22;9676;50.916;13.352;2023-04-24T14:51:37;21.20;44.10
19088;DHT22;9676;50.916;13.352;2023-04-24T14:54:26;21.10;43.90
19088;DHT22;9676;50.916;13.352;2023-04-24T14:57:16;21.10;44.10
19088;DHT22;9676;50.916;13.352;2023-04-24T15:00:06;21.10;44.20
19088;DHT22;9676;50.916;13.352;2023-04-24T15:02:57;21.10;44.20
19088;DHT22;9676;50.916;13.352;2023-04-24T15:05:47;21.10;44.20
19088;DHT22;9676;50.916;13.352;2023-04-24T15:08:38;21.10;44.20
19088;DHT22;9676;50.916;13.352;2023-04-24T15:11:27;21.10;44.10
19088;DHT22;9676;50.916;13.352;2023-04-24T15:14:17;21.10;44.20
19088;DHT22;9676;50.916;13.352;2023-04-24T15:17:07;21.20;44.30
19088;DHT22;9676;50.916;13.352;2023-04-24T15:19:56;21.20;44.20
19088;DHT22;9676;50.916;13.352;2023-04-24T15:22:46;21.20;43.90
19088;DHT22;9676;50.916;13.352;2023-04-24T15:25:37;21.20;44.00
19088;DHT22;9676;50.916;13.352;2023-04-24T15:28:26;21.20;44.00
19088;DHT22;9676;50.916;13.352;2023-04-24T15:31:16;21.10;43.90
19088;DHT22;9676;50.916;13.352;2023-04-24T15:34:05;21.00;43.60
19088;DHT22;9676;50.916;13.352;2023-04-24T15:36:54;20.90;43.30
19088;DHT22;9676;50.916;13.352;2023-04-24T15:39:44;20.80;43.30
19088;DHT22;9676;50.916;13.352;2023-04-24T15:42:35;20.70;43.30
19088;DHT22;9676;50.916;13.352;2023-04-24T15:45:25;20.60;43.20
19088;DHT22;9676;50.916;13.352;2023-04-24T15:48:14;20.50;43.30
19088;DHT22;9676;50.916;13.352;2023-04-24T15:51:03;20.40;43.30
19088;DHT22;9676;50.916;13.352;2023-04-24T15:53:53;20.30;43.40
19088;DHT22;9676;50.916;13.352;2023-04-24T15:56:42;20.20;43.60
19088;DHT22;9676;50.916;13.352;2023-04-24T15:59:33;20.10;43.70
19088;DHT22;9676;50.916;13.352;2023-04-24T16:02:23;20.10;43.80
19088;DHT22;9676;50.916;13.352;2023-04-24T16:05:13;20.10;43.90
19088;DHT22;9676;50.916;13.352;2023-04-24T16:08:03;20.10;43.90
19088;DHT22;9676;50.916;13.352;2023-04-24T16:10:52;20.10;43.80
19088;DHT22;9676;50.916;13.352;2023-04-24T16:13:42;20.10;44.40
19088;DHT22;9676;50.916;13.352;2023-04-24T16:16:32;20.00;43.60
19088;DHT22;9676;50.916;13.352;2023-04-24T16:19:22;20.00;43.60
19088;DHT22;9676;50.916;13.352;2023-04-24T16:22:11;19.90;43.60
19088;DHT22;9676;50.916;13.352;2023-04-24T16:25:01;19.90;43.60
19088;DHT22;9676;50.916;13.352;2023-04-24T16:27:50;19.80;43.60
19088;DHT22;9676;50.916;13.352;2023-04-24T16:30:40;19.70;43.60
19088;DHT22;9676;50.916;13.352;2023-04-24T16:33:31;19.70;43.60
19088;DHT22;9676;50.916;13.352;2023-04-24T16:36:21;19.60;43.60
19088;DHT22;9676;50.916;13.352;2023-04-24T16:39:11;19.50;43.60
19088;DHT22;9676;50.916;13.352;2023-04-24T16:42:01;19.40;43.50
19088;DHT22;9676;50.916;13.352;2023-04-24T16:44:50;19.40;43.60
19088;DHT22;9676;50.916;13.352;2023-04-24T16:47:40;19.30;43.70
19088;DHT22;9676;50.916;13.352;2023-04-24T16:50:31;19.20;43.70
19088;DHT22;9676;50.916;13.352;2023-04-24T16:53:20;19.10;43.80
19088;DHT22;9676;50.916;13.352;2023-04-24T16:56:09;19.00;43.80
19088;DHT22;9676;50.916;13.352;2023-04-24T16:58:59;19.00;43.90
19088;DHT22;9676;50.916;13.352;2023-04-24T17:01:48;18.90;43.90
19088;DHT22;9676;50.916;13.352;2023-04-24T17:04:37;18.90;44.00
19088;DHT22;9676;50.916;13.352;2023-04-24T17:07:28;18.80;44.00
19088;DHT22;9676;50.916;13.352;2023-04-24T17:10:18;18.80;44.10
19088;DHT22;9676;50.916;13.352;2023-04-24T17:13:08;18.70;44.00
19088;DHT22;9676;50.916;13.352;2023-04-24T17:15:57;18.70;44.00
19088;DHT22;9676;50.916;13.352;2023-04-24T17:18:48;18.70;44.00
19088;DHT22;9676;50.916;13.352;2023-04-24T17:21:37;18.60;43.90
19088;DHT22;9676;50.916;13.352;2023-04-24T17:24:28;18.50;43.80
19088;DHT22;9676;50.916;13.352;2023-04-24T17:27:17;18.50;43.90
19088;DHT22;9676;50.916;13.352;2023-04-24T17:30:08;18.40;43.80
19088;DHT22;9676;50.916;13.352;2023-04-24T17:32:58;18.30;43.80
19088;DHT22;9676;50.916;13.352;2023-04-24T17:35:47;18.30;43.90
19088;DHT22;9676;50.916;13.352;2023-04-24T17:38:37;18.20;43.90
19088;DHT22;9676;50.916;13.352;2023-04-24T17:41:28;18.10;43.80
19088;DHT22;9676;50.916;13.352;2023-04-24T17:44:17;18.00;43.80
19088;DHT22;9676;50.916;13.352;2023-04-24T17:47:08;18.00;44.00
19088;DHT22;9676;50.916;13.352;2023-04-24T17:49:57;17.90;44.00
19088;DHT22;9676;50.916;13.352;2023-04-24T17:52:47;17.80;44.10
19088;DHT22;9676;50.916;13.352;2023-04-24T17:55:37;17.80;44.20
19088;DHT22;9676;50.916;13.352;2023-04-24T17:58:28;17.80;44.30
19088;DHT22;9676;50.916;13.352;2023-04-24T18:01:17;17.70;44.30
19088;DHT22;9676;50.916;13.352;2023-04-24T18:04:07;17.70;44.30